Time;durP1;ratioP1;P1;durP2;ratioP2;P2;SDS_P1;SDS_P2;PMS_P1;PMS_P2;Temp;Humidity;BMP_temperature;BMP_pressure;BME280_temperature;BME280_humidity;BME280_pressure;Samples;Min_cycle;Max_cycle;Signal;HPM_P1;HPM_P2
2022/09/20 00:01:27;;;;;;;8.48;3.10;;;10.10;99.90;;;;;;4988810;28;20447;-57
2022/09/20 00:03:55;;;;;;;11.18;3.10;;;10.20;99.90;;;;;;4989534;28;20497;-57
2022/09/20 00:06:24;;;;;;;7.10;2.80;;;10.20;99.90;;;;;;4988880;28;20570;-57
2022/09/20 00:08:50;;;;;;;8.52;2.40;;;10.20;99.90;;;;;;4990167;28;20844;-57
2022/09/20 00:11:21;;;;;;;9.30;2.83;;;10.20;99.90;;;;;;4988738;28;20426;-57
2022/09/20 00:13:50;;;;;;;6.53;2.58;;;10.20;99.90;;;;;;4989151;28;20819;-57
2022/09/20 00:16:27;;;;;;;13.40;2.88;;;10.20;99.90;;;;;;4989204;28;20391;-57
2022/09/20 00:18:55;;;;;;;9.50;2.90;;;10.20;99.90;;;;;;4989869;28;20410;-57
2022/09/20 00:21:24;;;;;;;10.82;2.80;;;10.10;99.90;;;;;;4992304;28;21004;-57
2022/09/20 00:23:51;;;;;;;7.20;2.80;;;10.10;99.90;;;;;;4993257;28;20402;-57
2022/09/20 00:26:17;;;;;;;9.20;3.25;;;10.20;99.90;;;;;;4992417;28;20883;-57
2022/09/20 00:28:43;;;;;;;7.88;2.95;;;10.20;99.90;;;;;;4993123;28;20394;-56
2022/09/20 00:31:10;;;;;;;10.00;2.60;;;10.30;95.10;;;;;;4992074;28;20915;-57
2022/09/20 00:36:20;;;;;;;11.20;2.95;;;10.30;61.60;;;;;;4992228;28;20390;-56
2022/09/20 00:38:46;;;;;;;6.60;2.70;;;10.30;99.90;;;;;;4992748;28;20394;-57
2022/09/20 00:41:11;;;;;;;7.63;2.40;;;11.40;99.90;;;;;;4992160;28;20407;-57
2022/09/20 00:43:42;;;;;;;8.30;2.50;;;10.40;99.90;;;;;;4993084;28;20387;-57
2022/09/20 00:46:38;;;;;;;7.50;2.45;;;10.30;99.80;;;;;;4992195;28;20401;-57
2022/09/20 00:49:12;;;;;;;7.88;2.75;;;10.30;99.90;;;;;;4991498;28;20397;-57
2022/09/20 00:51:41;;;;;;;9.05;2.30;;;11.30;99.90;;;;;;4992925;28;20457;-57
2022/09/20 00:54:10;;;;;;;6.80;2.30;;;10.40;99.90;;;;;;4991875;28;20426;-57
2022/09/20 00:56:38;;;;;;;7.93;2.58;;;10.50;96.20;;;;;;4992450;28;20429;-57
2022/09/20 00:59:11;;;;;;;8.10;2.70;;;10.60;73.70;;;;;;4992112;28;20437;-56
2022/09/20 01:01:37;;;;;;;5.60;2.17;;;10.60;22.90;;;;;;4992662;28;20425;-55
2022/09/20 01:04:03;;;;;;;6.40;1.98;;;10.60;31.30;;;;;;4992258;28;20402;-55
2022/09/20 01:06:30;;;;;;;6.80;2.28;;;10.50;17.00;;;;;;4992686;28;20387;-55
2022/09/20 01:09:01;;;;;;;7.13;2.50;;;10.50;38.20;;;;;;4992092;28;20445;-57
2022/09/20 01:11:28;;;;;;;8.20;2.70;;;10.60;66.30;;;;;;4991822;28;20389;-57
2022/09/20 01:13:54;;;;;;;6.13;2.40;;;10.60;69.50;;;;;;4992116;28;20421;-57
2022/09/20 01:16:21;;;;;;;6.10;2.30;;;10.60;84.00;;;;;;4991641;28;20386;-57
2022/09/20 01:18:57;;;;;;;6.40;1.90;;;10.60;95.40;;;;;;4992389;28;20429;-55
2022/09/20 01:21:23;;;;;;;7.20;2.67;;;10.60;40.80;;;;;;4991181;28;21005;-55
2022/09/20 01:23:58;;;;;;;7.80;2.20;;;10.50;44.20;;;;;;4992352;28;20453;-57
2022/09/20 01:26:32;;;;;;;6.73;2.20;;;10.50;1.00;;;;;;4991236;28;20387;-57
2022/09/20 01:29:36;;;;;;;9.90;2.70;;;10.50;7.10;;;;;;4992118;28;20398;-55
2022/09/20 01:32:07;;;;;;;11.00;2.80;;;10.40;37.50;;;;;;4990964;28;20736;-55
2022/09/20 01:34:35;;;;;;;7.68;2.40;;;10.50;64.30;;;;;;4991900;28;20493;-55
2022/09/20 01:37:04;;;;;;;11.80;2.40;;;10.50;73.80;;;;;;4991693;28;20785;-55
2022/09/20 01:39:51;;;;;;;10.07;2.50;;;10.50;87.20;;;;;;4992153;28;20387;-55
2022/09/20 01:42:17;;;;;;;8.13;2.60;;;10.50;97.30;;;;;;4990850;28;20426;-55
2022/09/20 01:45:04;;;;;;;6.40;2.53;;;10.50;90.40;;;;;;4991850;28;20419;-55
2022/09/20 01:47:44;;;;;;;5.40;2.30;;;10.50;64.20;;;;;;4991970;28;20387;-55
2022/09/20 01:50:24;;;;;;;6.70;2.10;;;10.50;91.40;;;;;;4991098;28;20422;-56
2022/09/20 01:53:12;;;;;;;6.73;2.20;;;10.60;65.10;;;;;;4991546;28;20383;-55
2022/09/20 01:55:53;;;;;;;7.53;2.30;;;10.60;45.50;;;;;;4973928;28;20419;-56
2022/09/20 01:58:28;;;;;;;7.60;2.17;;;10.70;50.40;;;;;;4990855;28;20510;-56
2022/09/20 02:01:18;;;;;;;6.90;2.30;;;10.70;68.60;;;;;;4991388;28;20401;-56
2022/09/20 02:04:22;;;;;;;5.20;1.90;;;10.70;91.20;;;;;;4991485;28;20489;-56
2022/09/20 02:07:06;;;;;;;8.20;2.70;;;10.80;93.10;;;;;;4990508;28;20401;-56
2022/09/20 02:10:12;;;;;;;7.20;2.50;;;10.80;99.90;;;;;;4990772;28;20394;-56
2022/09/20 02:12:53;;;;;;;8.68;2.55;;;10.80;99.90;;;;;;4990981;28;20902;-56
2022/09/20 02:15:55;;;;;;;10.35;2.67;;;10.90;99.90;;;;;;4990307;28;20909;-56
2022/09/20 02:18:42;;;;;;;7.95;2.30;;;10.90;99.90;;;;;;4990154;28;21136;-56
2022/09/20 02:21:32;;;;;;;7.68;2.47;;;10.80;98.40;;;;;;4990115;28;20450;-56
2022/09/20 02:24:13;;;;;;;8.10;2.10;;;10.70;99.90;;;;;;4991121;28;20382;-56
2022/09/20 02:26:54;;;;;;;7.15;2.25;;;10.60;53.80;;;;;;4990785;28;20470;-56
2022/09/20 02:29:44;;;;;;;6.75;2.30;;;10.50;99.90;;;;;;4990310;28;20428;-56
2022/09/20 02:32:51;;;;;;;7.78;2.00;;;10.50;99.90;;;;;;4986141;28;20422;-56
2022/09/20 02:35:48;;;;;;;7.00;2.70;;;9.60;99.90;;;;;;4985847;28;20765;-56
2022/09/20 02:38:23;;;;;;;7.68;2.42;;;10.70;99.90;;;;;;4990068;28;20392;-57
2022/09/20 02:41:19;;;;;;;6.73;2.07;;;10.80;94.60;;;;;;4990299;28;20390;-56
2022/09/20 02:44:11;;;;;;;8.55;2.50;;;10.90;59.90;;;;;;4990260;28;20383;-56
2022/09/20 02:46:44;;;;;;;10.13;2.60;;;10.90;56.40;;;;;;4990638;28;20395;-56
2022/09/20 02:49:33;;;;;;;7.45;2.00;;;10.80;44.30;;;;;;4989982;28;20867;-55
2022/09/20 02:52:34;;;;;;;7.80;2.50;;;10.80;13.80;;;;;;4990610;28;20387;-55
2022/09/20 02:55:12;;;;;;;8.18;2.60;;;10.70;14.10;;;;;;4990448;28;20496;-56
2022/09/20 02:57:49;;;;;;;7.60;2.83;;;10.60;29.90;;;;;;4990432;28;20821;-56
2022/09/20 03:00:54;;;;;;;10.60;2.10;;;10.70;40.80;;;;;;4989559;28;20371;-56
2022/09/20 03:03:57;;;;;;;6.60;2.80;;;10.60;23.30;;;;;;4939906;28;20422;-56
2022/09/20 03:07:04;;;;;;;7.03;2.30;;;10.60;15.40;;;;;;4989873;28;20950;-56
2022/09/20 03:10:00;;;;;;;7.32;2.53;;;10.50;21.50;;;;;;4892229;29;20410;-56
2022/09/20 03:12:32;;;;;;;8.43;2.40;;;10.40;49.80;;;;;;4969829;28;20403;-56
2022/09/20 03:15:12;;;;;;;7.93;2.30;;;10.30;41.10;;;;;;4990184;28;20454;-56
2022/09/20 03:18:03;;;;;;;8.15;2.00;;;10.20;90.20;;;;;;4990310;28;20466;-56
2022/09/20 03:21:07;;;;;;;7.20;2.33;;;10.20;99.90;;;;;;4989855;28;20809;-56
2022/09/20 03:24:00;;;;;;;6.50;2.40;;;10.20;99.90;;;;;;4990377;28;20394;-56
2022/09/20 03:27:13;;;;;;;5.53;2.10;;;10.20;99.90;;;;;;4989361;28;20395;-56
2022/09/20 03:29:54;;;;;;;8.60;2.50;;;10.20;99.90;;;;;;4966767;28;20398;-56
2022/09/20 03:32:25;;;;;;;6.90;1.95;;;10.20;99.90;;;;;;4989531;28;20410;-55
2022/09/20 03:35:05;;;;;;;8.75;2.42;;;11.00;99.70;;;;;;4989783;28;20422;-55
2022/09/20 03:38:00;;;;;;;6.30;2.00;;;10.20;89.30;;;;;;4989859;28;20440;-55
2022/09/20 03:40:45;;;;;;;7.00;2.50;;;10.30;86.60;;;;;;4989311;28;21135;-56
2022/09/20 03:43:35;;;;;;;6.85;2.35;;;10.40;93.80;;;;;;4989429;28;20394;-55
2022/09/20 03:46:25;;;;;;;8.50;2.40;;;10.50;96.00;;;;;;4989741;28;20397;-56
2022/09/20 03:49:39;;;;;;;13.00;2.40;;;10.60;56.30;;;;;;4990054;28;20697;-56
2022/09/20 03:52:43;;;;;;;7.38;2.40;;;10.60;67.20;;;;;;4910318;29;20487;-56
2022/09/20 03:55:22;;;;;;;6.97;1.95;;;10.80;58.30;;;;;;4967818;28;20482;-56
2022/09/20 03:58:12;;;;;;;7.75;2.55;;;10.90;43.20;;;;;;4974168;28;20486;-56
2022/09/20 04:01:08;;;;;;;6.70;2.40;;;10.90;24.00;;;;;;4977150;28;20948;-56
2022/09/20 04:03:48;;;;;;;6.00;2.10;;;11.00;17.90;;;;;;4990796;28;20829;-56
2022/09/20 04:06:38;;;;;;;8.00;2.00;;;11.00;1.20;;;;;;4992811;28;20383;-56
2022/09/20 04:09:26;;;;;;;6.50;2.40;;;11.10;10.30;;;;;;4982227;28;20482;-56
2022/09/20 04:12:26;;;;;;;7.28;2.30;;;11.10;14.40;;;;;;4973194;28;20437;-56
2022/09/20 04:15:11;;;;;;;6.32;2.30;;;11.10;34.80;;;;;;4973802;28;20589;-56
2022/09/20 04:17:58;;;;;;;6.03;2.40;;;11.20;21.30;;;;;;4973945;28;20398;-56
2022/09/20 04:20:43;;;;;;;7.70;3.10;;;11.20;13.40;;;;;;4973620;28;20447;-56
2022/09/20 04:23:23;;;;;;;7.65;2.90;;;11.20;1.00;;;;;;4972906;28;20747;-56
2022/09/20 04:25:50;;;;;;;7.00;2.43;;;11.10;1.00;;;;;;4985261;28;20391;-56
2022/09/20 04:28:33;;;;;;;8.93;2.50;;;11.00;1.00;;;;;;4992060;28;20382;-56
2022/09/20 04:31:08;;;;;;;7.85;2.60;;;11.00;1.00;;;;;;4993525;28;20398;-56
2022/09/20 04:33:41;;;;;;;7.97;2.30;;;10.90;1.00;;;;;;4992864;28;20884;-55
2022/09/20 04:36:40;;;;;;;9.80;2.70;;;10.70;1.00;;;;;;4992656;28;20379;-56
2022/09/20 04:39:31;;;;;;;6.88;2.35;;;10.70;1.00;;;;;;4992232;28;20379;-56
2022/09/20 04:42:37;;;;;;;7.00;2.50;;;10.70;1.00;;;;;;4992402;28;20457;-56
2022/09/20 04:45:23;;;;;;;8.48;2.70;;;10.70;1.00;;;;;;4992493;28;21221;-55
2022/09/20 04:48:14;;;;;;;9.45;2.70;;;10.80;1.00;;;;;;4992114;28;20836;-56
2022/09/20 04:51:07;;;;;;;8.30;2.70;;;10.80;1.00;;;;;;4989120;28;20416;-56
2022/09/20 04:53:50;;;;;;;7.53;2.70;;;10.80;1.00;;;;;;4985352;28;20955;-56
2022/09/20 04:56:20;;;;;;;6.80;2.65;;;10.70;1.00;;;;;;4983904;28;20392;-56
2022/09/20 04:59:04;;;;;;;9.00;2.70;;;10.60;4.50;;;;;;4975179;28;20479;-56
2022/09/20 05:02:20;;;;;;;8.20;2.80;;;10.60;4.80;;;;;;4969221;28;20544;-56
2022/09/20 05:05:23;;;;;;;8.73;2.60;;;10.60;8.70;;;;;;4927674;29;20526;-55
2022/09/20 05:08:23;;;;;;;6.25;2.45;;;10.50;13.00;;;;;;4987507;28;20545;-56
2022/09/20 05:11:16;;;;;;;7.47;2.88;;;10.40;27.30;;;;;;4985289;28;20399;-56
2022/09/20 05:14:21;;;;;;;9.75;2.90;;;10.30;33.50;;;;;;4980608;28;20415;-56
2022/09/20 05:16:59;;;;;;;9.10;2.78;;;10.30;47.40;;;;;;4978825;28;20466;-56
2022/09/20 05:19:33;;;;;;;8.73;2.72;;;10.10;75.80;;;;;;4989624;28;20398;-56
2022/09/20 05:22:08;;;;;;;8.75;3.10;;;10.00;98.80;;;;;;4990024;28;20485;-56
2022/09/20 05:24:53;;;;;;;8.63;3.10;;;10.00;99.90;;;;;;4977210;28;20391;-56
2022/09/20 05:27:39;;;;;;;10.45;3.05;;;9.90;99.90;;;;;;4983745;28;20406;-56
2022/09/20 05:30:22;;;;;;;9.30;3.33;;;9.90;99.90;;;;;;4984862;28;20481;-56
2022/09/20 05:33:14;;;;;;;10.30;3.20;;;9.80;99.90;;;;;;4986529;28;20772;-56
2022/09/20 05:36:05;;;;;;;9.23;2.88;;;9.80;99.90;;;;;;4983687;28;20505;-56
2022/09/20 05:38:41;;;;;;;7.80;2.85;;;9.80;99.90;;;;;;4990898;28;20394;-56
2022/09/20 05:41:30;;;;;;;10.55;2.42;;;10.10;99.90;;;;;;4984263;28;20406;-56
2022/09/20 05:44:43;;;;;;;8.38;3.15;;;10.30;99.90;;;;;;4987522;28;20513;-56
2022/09/20 05:47:26;;;;;;;7.57;2.60;;;10.50;99.90;;;;;;4939957;28;20750;-56
2022/09/20 05:49:59;;;;;;;9.40;2.60;;;11.10;99.90;;;;;;4987321;28;20800;-57
2022/09/20 05:52:48;;;;;;;7.72;2.47;;;12.00;6.40;;;;;;4989843;28;20393;-57
2022/09/20 05:55:54;;;;;;;7.68;2.33;;;13.10;1.00;;;;;;4984365;28;20485;-56
2022/09/20 05:58:44;;;;;;;6.95;2.17;;;14.10;1.00;;;;;;4988157;28;20979;-56
2022/09/20 06:01:19;;;;;;;9.47;2.20;;;14.90;99.90;;;;;;4987324;28;20415;-57
2022/09/20 06:04:09;;;;;;;9.00;2.20;;;15.50;1.00;;;;;;4986307;28;20433;-56
2022/09/20 06:06:48;;;;;;;8.10;2.17;;;15.80;1.00;;;;;;4974084;28;20411;-57
2022/09/20 06:09:32;;;;;;;5.85;1.80;;;16.50;99.90;;;;;;4987449;28;20908;-57
2022/09/20 06:12:26;;;;;;;8.13;2.00;;;17.10;1.00;;;;;;4990416;28;20397;-57
2022/09/20 06:15:04;;;;;;;8.00;2.00;;;17.30;1.00;;;;;;4989643;28;20430;-57
2022/09/20 06:17:39;;;;;;;7.28;1.88;;;17.70;1.00;;;;;;4981008;28;20550;-54
2022/09/20 06:20:23;;;;;;;9.10;1.90;;;18.30;1.00;;;;;;4974377;28;20392;-54
2022/09/20 06:22:53;;;;;;;9.60;2.83;;;18.50;1.00;;;;;;4980215;28;20947;-54
2022/09/20 06:25:41;;;;;;;8.00;2.70;;;18.70;1.00;;;;;;4987216;28;20764;-55
2022/09/20 06:28:19;;;;;;;7.73;2.53;;;18.10;1.00;;;;;;4980744;28;20906;-57
2022/09/20 06:30:53;;;;;;;6.80;2.20;;;18.80;1.00;;;;;;4983221;28;20883;-57
2022/09/20 06:33:27;;;;;;;7.78;2.40;;;19.50;1.00;;;;;;4984412;28;20430;-57
2022/09/20 06:35:55;;;;;;;7.47;2.40;;;19.50;1.00;;;;;;4982262;28;20410;-55
2022/09/20 06:41:30;;;;;;;7.60;1.90;;;19.70;1.00;;;;;;4980504;28;20560;-57
2022/09/20 06:44:00;;;;;;;7.95;2.22;;;19.80;1.00;;;;;;4984505;28;20410;-57
2022/09/20 06:46:31;;;;;;;7.22;1.90;;;20.30;99.90;;;;;;4969972;28;20430;-57
2022/09/20 06:48:58;;;;;;;8.00;2.47;;;20.60;99.90;;;;;;4988532;28;20785;-57
2022/09/20 06:51:26;;;;;;;10.50;3.30;;;20.80;99.90;;;;;;4971937;28;20399;-57
2022/09/20 06:53:53;;;;;;;9.50;2.10;;;21.00;99.90;;;;;;4978811;28;20406;-57
2022/09/20 06:56:21;;;;;;;7.10;2.75;;;21.30;99.90;;;;;;4978501;28;20406;-58
2022/09/20 06:58:47;;;;;;;8.70;3.50;;;21.60;99.90;;;;;;4978134;28;20404;-57
2022/09/20 07:01:13;;;;;;;10.10;4.30;;;22.30;99.90;;;;;;4982072;28;20939;-57
2022/09/20 07:03:40;;;;;;;9.77;4.30;;;22.40;99.90;;;;;;4985554;28;20394;-57
2022/09/20 07:06:06;;;;;;;10.32;6.00;;;22.30;99.90;;;;;;4985408;28;20443;-57
2022/09/20 07:08:32;;;;;;;11.65;6.30;;;22.00;99.90;;;;;;4975090;28;20889;-57
2022/09/20 07:11:03;;;;;;;12.70;6.40;;;22.00;99.90;;;;;;4977026;28;20537;-58
2022/09/20 07:13:28;;;;;;;9.07;6.50;;;22.10;99.90;;;;;;4981042;28;20719;-58
2022/09/20 07:16:02;;;;;;;7.87;5.93;;;22.40;99.90;;;;;;4979845;28;20420;-58
2022/09/20 07:18:28;;;;;;;7.80;4.60;;;22.30;99.90;;;;;;4969991;28;20404;-57
2022/09/20 07:20:57;;;;;;;10.32;5.05;;;21.20;99.90;;;;;;4970195;28;20400;-58
2022/09/20 07:23:24;;;;;;;10.38;5.57;;;21.50;99.90;;;;;;4983490;28;20899;-58
2022/09/20 07:25:50;;;;;;;11.53;5.57;;;21.90;99.90;;;;;;4982736;28;20413;-61
2022/09/20 07:28:19;;;;;;;12.15;7.28;;;22.20;99.90;;;;;;4979641;28;20394;-63
2022/09/20 07:30:45;;;;;;;10.45;6.90;;;23.30;99.90;;;;;;4984915;28;20410;-62
2022/09/20 07:33:15;;;;;;;9.27;6.90;;;23.00;99.90;;;;;;4986143;28;20398;-62
2022/09/20 07:35:41;;;;;;;10.10;7.70;;;23.40;99.90;;;;;;4980326;28;20770;-63
2022/09/20 07:38:07;;;;;;;9.10;8.17;;;24.60;99.90;;;;;;4976355;28;20547;-62
2022/09/20 07:40:33;;;;;;;11.07;7.60;;;24.80;99.90;;;;;;4984226;28;20418;-63
2022/09/20 07:42:58;;;;;;;11.40;7.90;;;24.50;99.90;;;;;;4993587;28;20422;-61
2022/09/20 07:45:24;;;;;;;11.33;6.90;;;24.30;99.90;;;;;;4992887;28;20446;-63
2022/09/20 07:47:51;;;;;;;8.82;6.05;;;23.30;99.90;;;;;;4993928;28;20378;-62
2022/09/20 07:50:18;;;;;;;8.90;5.57;;;23.40;99.90;;;;;;4989215;28;20816;-63
2022/09/20 07:52:44;;;;;;;11.20;4.93;;;22.20;99.90;;;;;;4988945;28;20394;-65
2022/09/20 07:55:10;;;;;;;8.68;5.05;;;21.70;99.90;;;;;;4992491;28;20432;-62
2022/09/20 07:57:37;;;;;;;9.30;4.30;;;21.40;99.90;;;;;;4993067;28;20391;-64
2022/09/20 08:00:08;;;;;;;9.48;4.50;;;21.70;99.90;;;;;;4988613;28;20439;-64
2022/09/20 08:02:34;;;;;;;9.10;4.78;;;22.80;99.90;;;;;;4993579;28;20414;-57
2022/09/20 08:05:00;;;;;;;11.05;4.88;;;22.20;99.90;;;;;;4993544;28;20934;-57
2022/09/20 08:07:25;;;;;;;8.63;4.63;;;21.50;99.90;;;;;;4992498;28;20449;-57
2022/09/20 08:09:51;;;;;;;8.20;4.10;;;21.20;99.90;;;;;;4993560;28;20387;-57
2022/09/20 08:12:18;;;;;;;8.57;3.63;;;20.30;99.90;;;;;;4992592;28;20477;-57
2022/09/20 08:14:44;;;;;;;9.00;3.97;;;20.70;99.90;;;;;;4993180;28;20879;-57
2022/09/20 08:17:10;;;;;;;8.50;3.47;;;21.40;1.00;;;;;;4992552;28;20399;-57
2022/09/20 08:19:38;;;;;;;7.30;3.50;;;22.20;99.90;;;;;;4989064;28;20399;-58
2022/09/20 08:22:05;;;;;;;11.15;3.90;;;22.20;99.90;;;;;;4983548;28;20581;-57
2022/09/20 08:24:31;;;;;;;11.43;4.15;;;21.50;99.90;;;;;;4993127;28;20382;-57
2022/09/20 08:26:57;;;;;;;9.40;3.72;;;21.40;99.90;;;;;;4992951;28;20449;-57
2022/09/20 08:29:24;;;;;;;7.50;3.90;;;21.00;99.90;;;;;;4990252;28;20440;-57
2022/09/20 08:31:51;;;;;;;8.10;3.60;;;21.90;1.00;;;;;;4992650;28;20473;-58
2022/09/20 08:34:17;;;;;;;10.90;3.87;;;;;;;;;;4992255;28;20421;-58
2022/09/20 08:36:50;;;;;;;9.07;4.90;;;23.30;99.90;;;;;;4992944;28;20391;-57
2022/09/20 08:39:17;;;;;;;9.17;4.17;;;23.20;99.90;;;;;;4992115;28;20382;-58
2022/09/20 08:42:19;;;;;;;8.60;3.20;;;21.70;99.90;;;;;;4992196;28;20391;-57
2022/09/20 08:44:59;;;;;;;8.90;3.10;;;20.50;99.90;;;;;;4935527;28;20418;-56
2022/09/20 08:47:28;;;;;;;10.85;3.35;;;20.50;99.90;;;;;;4987011;28;20938;-57
2022/09/20 08:49:54;;;;;;;7.97;3.28;;;19.90;99.90;;;;;;4993116;28;20383;-57
2022/09/20 08:52:29;;;;;;;7.88;3.20;;;20.20;99.90;;;;;;4985417;28;20406;-57
2022/09/20 08:54:57;;;;;;;10.73;3.10;;;19.40;99.90;;;;;;4988881;28;20805;-57
2022/09/20 08:57:27;;;;;;;8.63;2.92;;;18.90;99.90;;;;;;4977193;28;20415;-57
2022/09/20 08:59:53;;;;;;;7.90;1.90;;;17.80;99.90;;;;;;4980863;28;20408;-57
2022/09/20 09:02:20;;;;;;;6.77;1.40;;;17.30;99.90;;;;;;4987803;28;20757;-57
2022/09/20 09:04:47;;;;;;;6.18;1.50;;;15.90;99.90;;;;;;4986589;28;20485;-57
2022/09/20 09:07:16;;;;;;;7.13;1.70;;;15.50;99.90;;;;;;4972597;28;20865;-57
2022/09/20 09:09:45;;;;;;;6.68;1.98;;;15.70;99.90;;;;;;4991666;28;20450;-57
2022/09/20 09:12:26;;;;;;;10.48;2.00;;;15.80;99.90;;;;;;4991250;28;20389;-57
2022/09/20 09:14:58;;;;;;;10.30;1.80;;;15.70;99.90;;;;;;4991762;28;20421;-56
2022/09/20 09:17:26;;;;;;;7.90;1.53;;;16.00;99.90;;;;;;4991442;28;20796;-57
2022/09/20 09:19:56;;;;;;;10.20;1.90;;;17.50;99.90;;;;;;4991742;28;20419;-57
2022/09/20 09:22:36;;;;;;;8.73;1.50;;;18.00;99.90;;;;;;4983271;28;20414;-57
2022/09/20 09:25:14;;;;;;;7.00;1.67;;;18.10;99.90;;;;;;4981661;28;20474;-57
2022/09/20 09:27:56;;;;;;;8.60;1.60;;;17.60;99.90;;;;;;4982917;28;20425;-57
2022/09/20 09:30:32;;;;;;;8.20;1.50;;;16.90;99.90;;;;;;4981409;28;20496;-57
2022/09/20 09:33:24;;;;;;;8.70;1.80;;;16.30;99.90;;;;;;4983837;28;20485;-57
2022/09/20 09:35:53;;;;;;;8.10;2.40;;;16.10;99.90;;;;;;4983217;28;20425;-57
2022/09/20 09:38:23;;;;;;;8.00;1.58;;;16.40;99.90;;;;;;4981306;28;20906;-57
2022/09/20 09:40:54;;;;;;;6.03;1.20;;;16.50;99.90;;;;;;4979917;28;20820;-57
2022/09/20 09:43:27;;;;;;;7.07;1.40;;;16.80;99.90;;;;;;4987320;28;20399;-57
2022/09/20 09:45:55;;;;;;;8.80;1.50;;;17.30;99.90;;;;;;4961156;28;20438;-57
2022/09/20 09:48:31;;;;;;;8.97;1.77;;;17.00;99.90;;;;;;4983440;28;20393;-57
2022/09/20 09:51:18;;;;;;;6.07;1.40;;;17.40;99.90;;;;;;4985106;28;20392;-57
2022/09/20 09:53:45;;;;;;;13.45;2.50;;;19.00;99.90;;;;;;4970430;28;20436;-56
2022/09/20 09:56:32;;;;;;;8.38;1.52;;;19.70;99.90;;;;;;4978371;28;20420;-56
2022/09/20 09:59:22;;;;;;;10.03;1.50;;;20.20;99.90;;;;;;4985303;28;20873;-57
2022/09/20 10:02:03;;;;;;;7.75;1.60;;;20.70;99.90;;;;;;4968663;28;20428;-57
2022/09/20 10:04:50;;;;;;;7.50;1.30;;;20.60;99.90;;;;;;4977731;28;21111;-57
2022/09/20 10:07:36;;;;;;;6.28;1.38;;;20.40;99.90;;;;;;4989732;28;20383;-57
2022/09/20 10:10:31;;;;;;;5.50;1.20;;;19.60;99.90;;;;;;4981479;28;20514;-56
2022/09/20 10:13:03;;;;;;;6.20;1.33;;;18.60;99.90;;;;;;4971698;28;20401;-57
2022/09/20 10:15:43;;;;;;;7.47;1.50;;;18.40;99.90;;;;;;4985396;28;21073;-57
2022/09/20 10:18:46;;;;;;;8.10;1.40;;;18.70;99.90;;;;;;4989867;28;20427;-57
2022/09/20 10:22:17;;;;;;;4.93;1.30;;;18.90;99.90;;;;;;4987316;28;20410;-57
2022/09/20 10:25:10;;;;;;;5.50;1.30;;;18.10;99.90;;;;;;4913055;28;20424;-57
2022/09/20 10:27:47;;;;;;;5.63;1.33;;;16.60;99.90;;;;;;4979190;28;20402;-58
2022/09/20 10:30:26;;;;;;;7.90;1.90;;;16.30;99.90;;;;;;4983170;28;20394;-58
2022/09/20 10:33:13;;;;;;;8.18;1.63;;;16.30;99.90;;;;;;4980971;28;20395;-59
2022/09/20 10:35:51;;;;;;;7.60;1.70;;;16.40;99.90;;;;;;4971024;28;20471;-59
2022/09/20 10:38:24;;;;;;;7.97;1.65;;;16.50;99.90;;;;;;4972982;28;20410;-58
2022/09/20 10:44:04;;;;;;;6.80;1.50;;;16.20;99.90;;;;;;4981260;28;20395;-56
2022/09/20 10:46:36;;;;;;;5.83;1.23;;;17.90;99.90;;;;;;4978843;28;20668;-56
2022/09/20 10:49:03;;;;;;;7.60;1.30;;;19.40;99.90;;;;;;4981864;28;20411;-56
2022/09/20 10:51:47;;;;;;;7.50;1.50;;;18.30;99.90;;;;;;4975605;28;20408;-56
2022/09/20 10:54:31;;;;;;;6.80;1.33;;;17.60;99.90;;;;;;4981750;28;20753;-56
2022/09/20 10:57:08;;;;;;;7.85;1.50;;;17.10;99.90;;;;;;4981112;28;20404;-57
2022/09/20 10:59:50;;;;;;;9.55;1.42;;;17.20;99.90;;;;;;4977506;28;20424;-56
2022/09/20 11:02:24;;;;;;;7.90;1.25;;;17.00;99.90;;;;;;4982343;28;20418;-58
2022/09/20 11:05:17;;;;;;;6.30;1.30;;;17.00;99.90;;;;;;4979857;28;20410;-56
2022/09/20 11:08:10;;;;;;;6.82;1.55;;;16.70;99.90;;;;;;4980921;28;20407;-56
2022/09/20 11:10:53;;;;;;;6.00;1.65;;;17.20;99.90;;;;;;4984153;28;20537;-56
2022/09/20 11:13:32;;;;;;;6.90;1.30;;;18.20;99.90;;;;;;4977689;28;20490;-56
2022/09/20 11:16:24;;;;;;;7.88;1.70;;;18.60;99.90;;;;;;4982641;28;20426;-56
2022/09/20 11:18:58;;;;;;;6.50;1.50;;;18.40;99.90;;;;;;4978604;28;20684;-56
2022/09/20 11:22:03;;;;;;;7.15;1.50;;;18.20;99.90;;;;;;4979762;28;20827;-56
2022/09/20 11:24:31;;;;;;;6.38;1.50;;;18.40;99.90;;;;;;4969438;28;20437;-56
2022/09/20 11:27:11;;;;;;;8.38;1.42;;;18.20;99.90;;;;;;4989428;28;20405;-56
2022/09/20 11:29:49;;;;;;;8.00;1.90;;;17.90;99.90;;;;;;4983061;28;20506;-56
2022/09/20 11:32:23;;;;;;;7.38;1.40;;;17.60;99.90;;;;;;4989344;28;20422;-57
2022/09/20 11:34:55;;;;;;;6.87;1.50;;;18.00;99.90;;;;;;4984718;28;20502;-57
2022/09/20 11:37:24;;;;;;;8.85;1.35;;;18.30;99.90;;;;;;4980995;28;20438;-57
2022/09/20 11:40:00;;;;;;;8.00;1.65;;;17.80;99.90;;;;;;4982474;28;20388;-56
2022/09/20 11:42:38;;;;;;;7.63;1.45;;;17.30;99.90;;;;;;4977060;28;20409;-56
2022/09/20 11:45:05;;;;;;;7.00;1.35;;;17.30;99.90;;;;;;4989756;28;20470;-57
2022/09/20 11:47:48;;;;;;;6.70;1.60;;;17.70;99.90;;;;;;4988978;28;20518;-57
2022/09/20 11:50:36;;;;;;;5.70;1.40;;;18.10;99.90;;;;;;4988892;28;20445;-56
2022/09/20 11:53:18;;;;;;;7.05;1.65;;;18.30;99.90;;;;;;4979825;28;20407;-56
2022/09/20 11:56:08;;;;;;;8.27;1.60;;;17.90;99.90;;;;;;4987968;28;20407;-57
2022/09/20 11:59:06;;;;;;;8.77;1.70;;;17.80;99.90;;;;;;4985081;28;20430;-56
2022/09/20 12:01:41;;;;;;;6.80;1.80;;;17.60;99.90;;;;;;4966509;28;20731;-58
2022/09/20 12:04:21;;;;;;;6.68;1.77;;;17.40;99.90;;;;;;4984008;28;20412;-56
2022/09/20 12:06:56;;;;;;;6.20;1.75;;;17.20;99.90;;;;;;4980273;28;20395;-56
2022/09/20 12:09:25;;;;;;;5.70;1.27;;;17.40;99.90;;;;;;4979277;28;20390;-56
2022/09/20 12:11:51;;;;;;;8.90;1.77;;;17.70;99.90;;;;;;4977462;28;20398;-57
2022/09/20 12:14:28;;;;;;;6.80;1.30;;;18.10;99.90;;;;;;4979868;28;20425;-57
2022/09/20 12:16:55;;;;;;;6.07;1.30;;;18.40;99.90;;;;;;4983986;28;20456;-57
2022/09/20 12:19:33;;;;;;;7.53;1.30;;;18.60;99.90;;;;;;4983635;28;20768;-56
2022/09/20 12:21:58;;;;;;;6.40;1.55;;;18.10;99.90;;;;;;4982545;28;20398;-56
2022/09/20 12:24:35;;;;;;;7.93;1.60;;;17.70;99.90;;;;;;4985564;28;20910;-56
2022/09/20 12:27:30;;;;;;;6.22;1.50;;;17.40;99.90;;;;;;4982930;28;20475;-56
2022/09/20 12:30:15;;;;;;;6.03;1.33;;;17.50;99.90;;;;;;4985410;28;21007;-56
2022/09/20 12:32:42;;;;;;;7.70;1.50;;;18.10;99.90;;;;;;4983261;28;20417;-56
2022/09/20 12:35:34;;;;;;;7.50;1.20;;;18.50;99.90;;;;;;4978366;28;20407;-57
2022/09/20 12:38:18;;;;;;;5.70;1.40;;;18.40;99.90;;;;;;4982104;28;20600;-56
2022/09/20 12:41:03;;;;;;;6.03;1.38;;;18.40;99.90;;;;;;4985483;28;20394;-56
2022/09/20 12:43:31;;;;;;;7.95;1.95;;;18.40;99.90;;;;;;4986471;28;20417;-56
2022/09/20 12:45:57;;;;;;;6.60;1.90;;;18.20;99.90;;;;;;4984985;28;20391;-56
2022/09/20 12:48:23;;;;;;;5.90;1.50;;;18.20;99.90;;;;;;4980353;28;20396;-56
2022/09/20 12:54:12;;;;;;;5.60;1.30;;;18.00;99.90;;;;;;4978286;28;20493;-56
2022/09/20 12:56:40;;;;;;;6.10;1.40;;;18.30;99.90;;;;;;4989277;28;20403;-56
2022/09/20 12:59:23;;;;;;;19.10;2.17;;;18.50;99.90;;;;;;4985836;28;20402;-57
2022/09/20 13:01:49;;;;;;;8.70;1.70;;;18.90;99.90;;;;;;4987782;28;20427;-56
2022/09/20 13:04:50;;;;;;;6.93;1.40;;;18.80;99.90;;;;;;4987379;28;20398;-57
2022/09/20 13:07:40;;;;;;;8.70;1.60;;;18.60;99.90;;;;;;4976037;28;20823;-56
2022/09/20 13:10:19;;;;;;;6.90;1.52;;;18.10;99.90;;;;;;4979248;28;20434;-56
2022/09/20 13:12:46;;;;;;;9.88;1.98;;;18.20;99.90;;;;;;4980072;28;20862;-56
2022/09/20 13:15:18;;;;;;;6.60;1.70;;;18.10;99.90;;;;;;4986646;28;20406;-56
2022/09/20 13:17:49;;;;;;;7.88;2.10;;;18.00;99.90;;;;;;4983351;28;20930;-56
2022/09/20 13:20:19;;;;;;;8.40;1.67;;;18.10;99.90;;;;;;4977480;28;20456;-57
2022/09/20 13:22:46;;;;;;;6.32;1.70;;;18.10;99.90;;;;;;4987742;28;20402;-56
2022/09/20 13:25:15;;;;;;;10.23;1.90;;;17.70;99.90;;;;;;4991056;28;20889;-56
2022/09/20 13:28:09;;;;;;;8.75;1.80;;;17.00;99.90;;;;;;4991607;28;20395;-56
2022/09/20 13:30:35;;;;;;;6.93;1.60;;;16.80;99.90;;;;;;4954993;28;20419;-56
2022/09/20 13:33:23;;;;;;;6.85;2.10;;;17.00;99.90;;;;;;4988512;28;20454;-56
2022/09/20 13:35:53;;;;;;;6.90;1.90;;;16.80;99.90;;;;;;4991304;28;20421;-55
2022/09/20 13:38:21;;;;;;;6.38;2.20;;;16.50;99.90;;;;;;4982681;28;20396;-55
2022/09/20 13:40:49;;;;;;;6.97;1.90;;;16.40;99.90;;;;;;4988154;28;20935;-56
2022/09/20 13:43:28;;;;;;;9.67;2.47;;;15.70;99.90;;;;;;4988732;28;20382;-55
2022/09/20 13:46:05;;;;;;;6.47;1.90;;;15.30;99.90;;;;;;4989131;28;20427;-55
2022/09/20 13:48:31;;;;;;;9.48;1.80;;;15.10;99.90;;;;;;4979010;28;20493;-55
2022/09/20 13:50:57;;;;;;;8.00;1.60;;;15.00;99.90;;;;;;4985760;28;20422;-55
2022/09/20 13:53:26;;;;;;;5.78;1.65;;;14.90;99.90;;;;;;4976695;28;20407;-55
2022/09/20 13:55:55;;;;;;;5.40;1.70;;;14.80;99.90;;;;;;4989696;28;20468;-55
2022/09/20 13:58:41;;;;;;;8.45;2.08;;;14.80;99.90;;;;;;4990759;28;20390;-55